Time;durP1;ratioP1;P1;durP2;ratioP2;P2;SDS_P1;SDS_P2;PMS_P1;PMS_P2;Temp;Humidity;BMP_temperature;BMP_pressure;BME280_temperature;BME280_humidity;BME280_pressure;Samples;Min_cycle;Max_cycle;Signal;HPM_P1;HPM_P2
2023/04/07 00:00:28;;;;;;;11.50;10.02;;;15.80;68.00;;;;;;4225803;28;20185;-65
2023/04/07 00:03:10;;;;;;;10.73;9.60;;;15.80;67.70;;;;;;4225788;28;20185;-65
2023/04/07 00:05:51;;;;;;;11.93;10.65;;;15.90;67.40;;;;;;4225637;28;20508;-65
2023/04/07 00:08:32;;;;;;;11.93;9.98;;;16.00;67.20;;;;;;4223993;28;20416;-64
2023/04/07 00:11:14;;;;;;;10.70;9.57;;;16.00;67.20;;;;;;4224477;28;20042;-65
2023/04/07 00:13:55;;;;;;;10.55;9.45;;;16.00;67.00;;;;;;4225388;28;20736;-65
2023/04/07 00:16:37;;;;;;;14.07;10.05;;;16.00;67.00;;;;;;4223377;28;20561;-65
2023/04/07 00:19:17;;;;;;;11.10;9.93;;;16.00;67.00;;;;;;4191971;28;20048;-65
2023/04/07 00:21:58;;;;;;;12.07;10.88;;;16.00;67.00;;;;;;4190671;28;20407;-65
2023/04/07 00:24:39;;;;;;;12.05;10.55;;;16.00;67.00;;;;;;4191890;28;20202;-65
2023/04/07 00:27:22;;;;;;;10.90;9.80;;;16.00;67.30;;;;;;4204643;28;20060;-65
2023/04/07 00:30:03;;;;;;;11.02;9.77;;;16.00;67.00;;;;;;4223737;28;20050;-65
2023/04/07 00:32:44;;;;;;;11.02;9.93;;;16.00;66.90;;;;;;4225296;28;20184;-65
2023/04/07 00:35:25;;;;;;;11.15;10.02;;;16.00;66.80;;;;;;4223828;28;20217;-65
2023/04/07 00:38:06;;;;;;;11.13;9.75;;;16.10;66.90;;;;;;4219794;28;20047;-64
2023/04/07 00:40:47;;;;;;;10.60;9.35;;;16.10;66.80;;;;;;4223993;28;20050;-65
2023/04/07 00:43:29;;;;;;;11.63;10.43;;;16.10;66.60;;;;;;4225132;28;20050;-64
2023/04/07 00:46:09;;;;;;;11.07;9.98;;;16.20;66.50;;;;;;4215577;28;20597;-64
2023/04/07 00:48:50;;;;;;;11.55;10.43;;;16.10;66.40;;;;;;4207127;28;20047;-65
2023/04/07 00:51:31;;;;;;;11.13;9.53;;;16.20;66.30;;;;;;4207139;28;20047;-65
2023/04/07 00:54:12;;;;;;;11.40;10.23;;;16.10;66.30;;;;;;4214725;28;20066;-65
2023/04/07 00:56:53;;;;;;;13.40;10.30;;;16.10;66.50;;;;;;4217026;28;20050;-66
2023/04/07 00:59:36;;;;;;;9.75;8.80;;;16.10;66.40;;;;;;4206556;28;20063;-64
2023/04/07 01:02:21;;;;;;;10.55;9.40;;;16.20;66.50;;;;;;4198324;28;20070;-64
2023/04/07 01:05:11;;;;;;;10.80;9.70;;;16.20;67.20;;;;;;4224494;28;20055;-64
2023/04/07 01:07:58;;;;;;;11.32;9.70;;;16.20;66.40;;;;;;4221790;28;20091;-64
2023/04/07 01:10:46;;;;;;;13.60;10.15;;;16.20;66.30;;;;;;4203250;28;20395;-64
2023/04/07 01:13:34;;;;;;;11.48;10.27;;;16.20;66.20;;;;;;4211274;28;20071;-64
2023/04/07 01:16:31;;;;;;;10.10;9.10;;;16.20;66.20;;;;;;4209378;28;20047;-64
2023/04/07 01:19:16;;;;;;;11.27;10.07;;;16.30;66.20;;;;;;4209965;28;20055;-66
2023/04/07 01:22:10;;;;;;;10.35;9.35;;;16.20;67.10;;;;;;4204568;28;20102;-64
2023/04/07 01:25:18;;;;;;;11.45;10.32;;;16.20;66.30;;;;;;4209173;28;20063;-65
2023/04/07 01:28:18;;;;;;;11.77;10.38;;;16.30;66.20;;;;;;4209038;28;20055;-65
2023/04/07 01:31:03;;;;;;;10.52;9.43;;;16.30;67.10;;;;;;4192876;28;20451;-65
2023/04/07 01:33:46;;;;;;;10.02;9.02;;;16.30;66.10;;;;;;4227747;28;20054;-65
2023/04/07 01:36:28;;;;;;;11.05;9.95;;;16.30;66.20;;;;;;4219689;28;20227;-64
2023/04/07 01:39:11;;;;;;;10.90;9.80;;;16.20;66.20;;;;;;4217436;27;20050;-61
2023/04/07 01:41:52;;;;;;;12.25;9.93;;;16.20;66.40;;;;;;4226381;28;20053;-61
2023/04/07 01:44:34;;;;;;;10.43;9.43;;;16.20;66.70;;;;;;4226251;27;20065;-61
2023/04/07 01:47:17;;;;;;;12.55;10.27;;;16.20;66.70;;;;;;4212355;28;20055;-61
2023/04/07 01:49:59;;;;;;;10.20;9.20;;;16.20;66.60;;;;;;4210854;28;20190;-60
2023/04/07 01:52:40;;;;;;;11.15;9.63;;;16.30;66.50;;;;;;4222039;27;20153;-61
2023/04/07 01:55:22;;;;;;;10.45;9.45;;;16.30;66.50;;;;;;4227347;28;20058;-60
2023/04/07 01:58:13;;;;;;;10.40;9.30;;;16.30;66.40;;;;;;4208963;28;20124;-61
2023/04/07 02:00:55;;;;;;;10.55;9.45;;;16.30;66.20;;;;;;4202795;28;20047;-61
2023/04/07 02:03:43;;;;;;;11.80;9.55;;;16.40;67.10;;;;;;4224399;27;20101;-60
2023/04/07 02:06:31;;;;;;;10.80;9.70;;;16.40;66.20;;;;;;4218930;27;20054;-61
2023/04/07 02:09:16;;;;;;;11.43;9.95;;;16.40;65.90;;;;;;4209530;28;20101;-61
2023/04/07 02:11:59;;;;;;;10.15;9.15;;;16.30;65.80;;;;;;4209647;28;20093;-64
2023/04/07 02:14:44;;;;;;;10.73;9.55;;;16.30;66.00;;;;;;4209293;28;20047;-64
2023/04/07 02:17:29;;;;;;;11.07;9.50;;;16.20;66.40;;;;;;4209274;28;20391;-61
2023/04/07 02:20:13;;;;;;;11.23;10.02;;;16.20;66.60;;;;;;4208897;28;20039;-61
2023/04/07 02:22:54;;;;;;;10.75;9.05;;;16.10;66.70;;;;;;4210123;28;20055;-61
2023/04/07 02:25:37;;;;;;;11.77;9.60;;;16.10;66.90;;;;;;4208824;28;20051;-61
2023/04/07 02:28:17;;;;;;;10.15;9.15;;;16.00;68.10;;;;;;4209196;28;20504;-61
2023/04/07 02:30:58;;;;;;;10.57;9.47;;;16.00;67.50;;;;;;4209029;28;20058;-61
2023/04/07 02:33:39;;;;;;;11.02;9.88;;;16.10;67.30;;;;;;4210020;28;20055;-61
2023/04/07 02:36:21;;;;;;;10.55;9.35;;;16.20;67.00;;;;;;4203524;28;20074;-61
2023/04/07 02:39:02;;;;;;;10.45;9.43;;;16.30;66.80;;;;;;4193430;28;20379;-61
2023/04/07 02:41:43;;;;;;;9.90;8.90;;;16.30;66.80;;;;;;4193153;28;20056;-61
2023/04/07 02:44:24;;;;;;;10.98;9.80;;;16.30;66.70;;;;;;4193203;28;20461;-61
2023/04/07 02:47:05;;;;;;;9.85;8.90;;;16.40;66.50;;;;;;4193510;28;20047;-61
2023/04/07 02:49:46;;;;;;;12.40;9.77;;;16.40;66.40;;;;;;4209768;28;20133;-61
2023/04/07 02:52:28;;;;;;;10.77;9.77;;;16.40;66.10;;;;;;4209632;28;20054;-61
2023/04/07 02:55:10;;;;;;;9.75;8.68;;;16.50;66.20;;;;;;4210451;28;20055;-61
2023/04/07 02:57:50;;;;;;;10.23;9.05;;;16.50;66.10;;;;;;4208518;28;20051;-61
2023/04/07 03:00:42;;;;;;;11.20;9.27;;;16.50;65.90;;;;;;4207791;28;20063;-61
2023/04/07 03:03:30;;;;;;;10.73;9.63;;;16.50;65.80;;;;;;4196557;28;20101;-60
2023/04/07 03:06:19;;;;;;;11.18;9.88;;;16.50;65.90;;;;;;4208508;28;20387;-61
2023/04/07 03:09:24;;;;;;;10.25;9.18;;;16.50;66.00;;;;;;4209231;28;20055;-61
2023/04/07 03:12:05;;;;;;;10.90;9.80;;;16.40;66.10;;;;;;4208216;28;20055;-61
2023/04/07 03:14:49;;;;;;;12.43;10.05;;;16.30;66.30;;;;;;4208002;28;20064;-61
2023/04/07 03:17:31;;;;;;;10.60;9.52;;;16.30;66.70;;;;;;4198962;28;20122;-61
2023/04/07 03:20:12;;;;;;;10.75;9.65;;;16.30;67.60;;;;;;4207885;28;20054;-60
2023/04/07 03:22:53;;;;;;;12.00;10.33;;;16.30;66.50;;;;;;4208943;28;20588;-60
2023/04/07 03:25:40;;;;;;;10.15;8.93;;;16.40;66.40;;;;;;4213863;28;20046;-60
2023/04/07 03:28:24;;;;;;;10.80;9.70;;;16.40;67.20;;;;;;4224353;28;20039;-61
2023/04/07 03:31:05;;;;;;;11.25;9.68;;;16.30;66.20;;;;;;4225605;27;20531;-61
2023/04/07 03:33:46;;;;;;;11.18;10.10;;;16.30;66.50;;;;;;4225444;27;20046;-61
2023/04/07 03:36:27;;;;;;;11.75;10.13;;;16.30;66.40;;;;;;4202890;28;20059;-61
2023/04/07 03:39:11;;;;;;;10.10;9.10;;;16.20;66.50;;;;;;4190866;28;20067;-60
2023/04/07 03:41:53;;;;;;;10.98;9.82;;;16.20;66.90;;;;;;4192124;28;20061;-60
2023/04/07 03:44:34;;;;;;;10.98;9.88;;;16.10;67.20;;;;;;4190967;28;20055;-61
2023/04/07 03:47:15;;;;;;;11.75;10.45;;;16.20;67.50;;;;;;4190744;28;20093;-61
2023/04/07 03:49:58;;;;;;;10.38;9.38;;;16.30;68.10;;;;;;4190685;28;20055;-61
2023/04/07 03:52:40;;;;;;;10.40;9.38;;;16.40;66.90;;;;;;4190436;28;20109;-61
2023/04/07 03:55:33;;;;;;;10.85;9.75;;;16.50;66.50;;;;;;4201277;28;20054;-60
2023/04/07 03:58:23;;;;;;;10.95;9.73;;;16.50;66.20;;;;;;4196126;28;20042;-61
2023/04/07 04:01:04;;;;;;;11.90;10.70;;;16.50;66.10;;;;;;4208078;28;20105;-61
2023/04/07 04:03:46;;;;;;;10.13;9.10;;;16.60;66.10;;;;;;4207357;28;20106;-61
2023/04/07 04:06:35;;;;;;;10.13;9.13;;;16.60;65.90;;;;;;4217728;28;20115;-61
2023/04/07 04:09:28;;;;;;;10.27;9.32;;;16.50;65.90;;;;;;4223495;28;20054;-61
2023/04/07 04:12:10;;;;;;;10.02;9.13;;;16.60;65.90;;;;;;4225190;28;20042;-61
2023/04/07 04:14:59;;;;;;;10.65;9.57;;;16.50;66.10;;;;;;4209970;28;20411;-61
2023/04/07 04:17:41;;;;;;;12.68;9.88;;;16.50;66.20;;;;;;4196604;28;20403;-61
2023/04/07 04:20:22;;;;;;;9.45;8.65;;;16.40;66.30;;;;;;4207061;28;20051;-61
2023/04/07 04:23:03;;;;;;;10.88;9.30;;;16.40;66.50;;;;;;4206657;28;20533;-61
2023/04/07 04:25:45;;;;;;;11.30;10.13;;;16.30;66.80;;;;;;4202819;28;20054;-61
2023/04/07 04:28:26;;;;;;;11.23;10.13;;;16.30;66.80;;;;;;4223837;28;20042;-61
2023/04/07 04:31:09;;;;;;;11.23;9.70;;;16.40;67.70;;;;;;4223894;28;20059;-60
2023/04/07 04:33:56;;;;;;;9.98;8.93;;;16.40;66.50;;;;;;4219100;28;20051;-60
2023/04/07 04:36:39;;;;;;;10.82;9.57;;;16.50;66.40;;;;;;4219502;28;20054;-60
2023/04/07 04:39:20;;;;;;;11.02;9.93;;;16.50;66.30;;;;;;4228568;28;20153;-60
2023/04/07 04:42:02;;;;;;;10.55;9.55;;;16.50;66.50;;;;;;4227645;28;20165;-60
2023/04/07 04:44:47;;;;;;;11.70;9.70;;;16.50;66.30;;;;;;4215527;28;20132;-60
2023/04/07 04:47:31;;;;;;;9.88;8.90;;;16.50;66.10;;;;;;4193775;28;20403;-60
2023/04/07 04:50:14;;;;;;;11.00;9.80;;;16.50;65.80;;;;;;4193846;28;20052;-60
2023/04/07 04:52:57;;;;;;;11.25;9.68;;;16.60;66.00;;;;;;4193609;28;20052;-60
2023/04/07 04:55:39;;;;;;;;;;;16.50;65.90;;;;;;4207702;28;20043;-60
2023/04/07 04:58:20;;;;;;;9.85;8.95;;;16.50;66.20;;;;;;4210193;28;19946;-60
2023/04/07 05:01:05;;;;;;;10.38;9.32;;;16.50;66.50;;;;;;4210139;28;20051;-60
2023/04/07 05:03:54;;;;;;;10.50;9.45;;;16.40;66.60;;;;;;4209085;28;20047;-60
2023/04/07 05:06:39;;;;;;;12.02;9.70;;;16.50;67.50;;;;;;4210084;28;20067;-61
2023/04/07 05:09:23;;;;;;;10.43;9.40;;;16.50;66.30;;;;;;4209809;28;20129;-61
2023/04/07 05:12:05;;;;;;;;;;;16.60;66.20;;;;;;4216887;28;20059;-60
2023/04/07 05:14:51;;;;;;;11.05;9.52;;;16.60;66.00;;;;;;4220272;28;20555;-60
2023/04/07 05:17:32;;;;;;;10.27;9.27;;;16.60;65.80;;;;;;4226731;28;20390;-60
2023/04/07 05:20:16;;;;;;;10.10;8.95;;;16.70;65.90;;;;;;4226937;27;20094;-60
2023/04/07 05:22:57;;;;;;;10.52;9.40;;;16.60;65.70;;;;;;4213838;28;20062;-60
2023/04/07 05:25:44;;;;;;;11.43;10.15;;;16.60;65.80;;;;;;4192989;28;20064;-61
2023/04/07 05:28:25;;;;;;;10.52;9.50;;;16.60;65.90;;;;;;4193336;28;20118;-60
2023/04/07 05:31:09;;;;;;;12.25;10.38;;;16.50;66.10;;;;;;4192861;28;20430;-61
2023/04/07 05:33:50;;;;;;;11.55;10.35;;;16.50;66.30;;;;;;4192905;28;20150;-61
2023/04/07 05:36:35;;;;;;;11.07;9.98;;;16.40;66.50;;;;;;4193112;28;20383;-60
2023/04/07 05:39:16;;;;;;;11.77;10.57;;;16.40;66.80;;;;;;4192810;28;20137;-60
2023/04/07 05:41:57;;;;;;;;;;;16.30;66.90;;;;;;4189679;28;20558;-60
2023/04/07 05:44:40;;;;;;;12.00;10.18;;;16.30;67.60;;;;;;4209342;28;19926;-59
2023/04/07 05:47:21;;;;;;;12.70;10.80;;;16.40;67.80;;;;;;4210644;28;20415;-59
2023/04/07 05:50:03;;;;;;;13.23;10.45;;;16.40;67.50;;;;;;4209552;28;20140;-60
2023/04/07 05:52:48;;;;;;;12.20;10.95;;;16.50;67.40;;;;;;4219512;27;20524;-60
2023/04/07 05:55:35;;;;;;;11.25;9.85;;;16.50;67.30;;;;;;4207769;28;20506;-59
2023/04/07 05:58:17;;;;;;;11.38;10.23;;;16.60;67.20;;;;;;4208243;28;20051;-59
2023/04/07 06:01:03;;;;;;;11.15;9.98;;;16.60;66.80;;;;;;4209224;28;20407;-60
2023/04/07 06:03:44;;;;;;;11.43;10.23;;;16.60;67.50;;;;;;4211077;28;20047;-60
2023/04/07 06:06:34;;;;;;;11.82;9.80;;;16.60;66.60;;;;;;4209170;28;20059;-59
2023/04/07 06:09:16;;;;;;;11.50;10.30;;;16.60;66.80;;;;;;4201825;28;20102;-59
2023/04/07 06:11:57;;;;;;;11.77;10.52;;;16.50;67.10;;;;;;4215637;28;20056;-59
2023/04/07 06:14:39;;;;;;;11.38;9.50;;;16.50;67.50;;;;;;4208687;28;20055;-60
2023/04/07 06:17:19;;;;;;;12.25;10.18;;;16.60;67.20;;;;;;4208795;28;20051;-60
2023/04/07 06:20:00;;;;;;;11.27;10.00;;;16.60;67.00;;;;;;4210096;28;20071;-59
2023/04/07 06:22:42;;;;;;;12.50;10.38;;;16.70;66.70;;;;;;4208700;28;20477;-59
2023/04/07 06:25:24;;;;;;;11.68;10.48;;;16.60;66.50;;;;;;4208328;28;20059;-59
2023/04/07 06:28:06;;;;;;;10.63;9.50;;;16.60;66.70;;;;;;4208373;28;20113;-59
2023/04/07 06:30:47;;;;;;;13.40;10.55;;;16.50;67.90;;;;;;4207861;28;20046;-60
2023/04/07 06:33:28;;;;;;;;;;;16.60;67.40;;;;;;4210026;28;20137;-59
2023/04/07 06:36:10;;;;;;;11.85;10.65;;;16.50;67.50;;;;;;4208911;28;19941;-64
2023/04/07 06:38:51;;;;;;;16.27;11.93;;;16.40;67.90;;;;;;4196434;28;20516;-64
2023/04/07 06:41:33;;;;;;;12.48;11.23;;;16.40;68.10;;;;;;4209933;28;20575;-63
2023/04/07 06:44:13;;;;;;;12.02;10.43;;;16.30;68.20;;;;;;4209084;28;20182;-64
2023/04/07 06:46:54;;;;;;;13.68;11.40;;;16.30;68.40;;;;;;4192884;28;20047;-60
2023/04/07 06:49:35;;;;;;;11.40;10.25;;;16.20;68.50;;;;;;4192730;28;20059;-59
2023/04/07 06:52:16;;;;;;;12.57;10.73;;;16.10;68.70;;;;;;4192938;28;20059;-59
2023/04/07 06:54:58;;;;;;;12.93;10.95;;;16.10;69.00;;;;;;4197650;28;20055;-60
2023/04/07 06:57:40;;;;;;;;;;;16.20;69.00;;;;;;4209953;28;20108;-59
2023/04/07 07:00:21;;;;;;;10.85;9.73;;;16.20;68.80;;;;;;4209357;28;20291;-59
2023/04/07 07:03:02;;;;;;;12.23;10.45;;;16.30;68.90;;;;;;4209326;28;20065;-59
2023/04/07 07:05:43;;;;;;;10.75;9.40;;;16.30;68.70;;;;;;4210250;28;20403;-59
2023/04/07 07:08:24;;;;;;;12.10;10.18;;;16.40;68.40;;;;;;4209592;28;20548;-60
2023/04/07 07:11:05;;;;;;;10.32;9.23;;;16.40;68.20;;;;;;4208287;28;20059;-59
2023/04/07 07:13:48;;;;;;;10.82;9.45;;;16.40;68.10;;;;;;4209224;28;20055;-59
2023/04/07 07:16:29;;;;;;;10.93;9.43;;;16.40;68.10;;;;;;4224653;28;20053;-60
2023/04/07 07:19:10;;;;;;;11.95;10.75;;;16.40;69.10;;;;;;4223152;27;20502;-59
2023/04/07 07:21:50;;;;;;;12.20;10.98;;;16.40;68.10;;;;;;4197418;28;20144;-59
2023/04/07 07:24:32;;;;;;;12.65;11.30;;;16.50;68.20;;;;;;4209538;28;20125;-59
2023/04/07 07:27:13;;;;;;;13.38;11.77;;;16.40;68.20;;;;;;4194658;28;20067;-59
2023/04/07 07:29:55;;;;;;;18.63;13.48;;;16.40;67.90;;;;;;4208631;28;20055;-60
2023/04/07 07:32:36;;;;;;;14.30;12.77;;;16.30;68.10;;;;;;4192438;28;20222;-59
2023/04/07 07:35:17;;;;;;;17.80;14.27;;;16.30;68.20;;;;;;4202475;28;20073;-64
2023/04/07 07:37:58;;;;;;;15.50;13.20;;;16.20;68.50;;;;;;4208819;28;20051;-63
2023/04/07 07:40:39;;;;;;;16.70;13.93;;;16.10;68.70;;;;;;4206732;27;20050;-63
2023/04/07 07:43:20;;;;;;;16.65;14.27;;;16.10;69.00;;;;;;4223146;27;20379;-63
2023/04/07 07:46:02;;;;;;;17.15;14.20;;;16.00;69.10;;;;;;4210146;28;20043;-64
2023/04/07 07:48:43;;;;;;;20.75;15.48;;;16.00;69.10;;;;;;4202305;28;20052;-63
2023/04/07 07:51:24;;;;;;;18.95;15.63;;;16.00;69.20;;;;;;4196280;28;20125;-64
2023/04/07 07:54:05;;;;;;;18.48;16.58;;;16.00;68.70;;;;;;4200504;28;20530;-64
2023/04/07 07:56:46;;;;;;;18.52;16.52;;;15.90;68.00;;;;;;4205669;28;20043;-63
2023/04/07 07:59:27;;;;;;;20.15;17.48;;;15.90;69.20;;;;;;4207811;28;20132;-63
2023/04/07 08:02:09;;;;;;;19.08;16.95;;;15.90;68.40;;;;;;4205310;28;20063;-63
2023/04/07 08:04:50;;;;;;;20.92;17.15;;;15.80;68.10;;;;;;4208684;28;20055;-63
2023/04/07 08:07:30;;;;;;;18.75;16.80;;;15.80;68.40;;;;;;4208661;28;20132;-63
2023/04/07 08:10:11;;;;;;;21.02;15.55;;;15.80;68.60;;;;;;4199266;28;20133;-63
2023/04/07 08:12:52;;;;;;;20.70;17.02;;;15.70;69.10;;;;;;4195498;28;20055;-66
2023/04/07 08:15:33;;;;;;;19.73;15.60;;;15.70;69.80;;;;;;4190230;28;20514;-66
2023/04/07 08:18:16;;;;;;;20.42;17.30;;;15.70;70.30;;;;;;4203362;28;20197;-66
2023/04/07 08:20:57;;;;;;;18.33;16.00;;;15.70;70.40;;;;;;4191932;28;20194;-67
2023/04/07 08:23:38;;;;;;;18.75;15.40;;;15.70;70.40;;;;;;4191505;28;20059;-65
2023/04/07 08:26:19;;;;;;;18.55;15.55;;;15.70;70.20;;;;;;4190821;28;20162;-65
2023/04/07 08:28:59;;;;;;;18.37;15.77;;;15.70;70.50;;;;;;4201682;28;20062;-66
2023/04/07 08:31:41;;;;;;;19.48;15.35;;;15.70;70.90;;;;;;4190312;28;20294;-62
2023/04/07 08:34:23;;;;;;;16.88;13.88;;;15.70;70.90;;;;;;4190120;28;20970;-62
2023/04/07 08:37:04;;;;;;;16.33;14.57;;;15.70;70.90;;;;;;4204177;28;20152;-61
2023/04/07 08:39:45;;;;;;;16.10;14.13;;;15.70;70.80;;;;;;4193270;28;20051;-61
2023/04/07 08:42:29;;;;;;;17.70;15.32;;;15.70;71.90;;;;;;4188779;28;20060;-62
2023/04/07 08:45:10;;;;;;;16.52;13.30;;;15.70;71.20;;;;;;4205390;28;20113;-62
2023/04/07 08:47:55;;;;;;;14.50;12.75;;;15.70;71.40;;;;;;4193998;28;20122;-62
2023/04/07 08:50:38;;;;;;;15.45;13.48;;;15.70;71.00;;;;;;4189543;28;20091;-61
2023/04/07 08:53:23;;;;;;;19.20;13.32;;;15.60;70.90;;;;;;4192607;28;20386;-61
2023/04/07 08:56:06;;;;;;;13.43;12.00;;;15.70;70.40;;;;;;4202103;28;20213;-62
2023/04/07 08:58:48;;;;;;;14.52;11.82;;;15.60;70.30;;;;;;4190105;28;20067;-61
2023/04/07 09:01:30;;;;;;;14.77;11.82;;;15.70;70.80;;;;;;4204597;28;20071;-61
2023/04/07 09:04:11;;;;;;;14.48;12.52;;;15.70;70.60;;;;;;4188834;28;20123;-61
2023/04/07 09:06:54;;;;;;;14.60;12.85;;;15.70;70.50;;;;;;4196657;28;20433;-62
2023/04/07 09:09:34;;;;;;;15.60;12.45;;;15.70;70.40;;;;;;4198335;28;20058;-62
2023/04/07 09:12:15;;;;;;;13.30;11.95;;;15.70;70.60;;;;;;4193479;28;20153;-61
2023/04/07 09:14:57;;;;;;;14.73;12.45;;;15.70;70.60;;;;;;4203364;28;20055;-62
2023/04/07 09:17:37;;;;;;;13.27;11.80;;;15.70;70.60;;;;;;4184862;28;20499;-65
2023/04/07 09:20:19;;;;;;;12.60;11.00;;;15.70;71.30;;;;;;4197874;28;20517;-65
2023/04/07 09:23:00;;;;;;;12.68;11.35;;;15.70;70.50;;;;;;4207341;28;20059;-65
2023/04/07 09:25:41;;;;;;;12.63;11.30;;;15.70;70.30;;;;;;4191627;28;20063;-65
2023/04/07 09:28:22;;;;;;;12.37;11.07;;;15.70;70.20;;;;;;4191207;28;20803;-66
2023/04/07 09:31:03;;;;;;;11.60;9.85;;;15.60;70.10;;;;;;4193397;28;20063;-65
2023/04/07 09:33:44;;;;;;;21.05;10.32;;;15.60;70.20;;;;;;4192452;28;20482;-66
2023/04/07 09:36:29;;;;;;;11.93;10.23;;;15.60;70.30;;;;;;4191205;28;20060;-66
2023/04/07 09:39:12;;;;;;;12.27;10.98;;;15.70;70.70;;;;;;4207850;28;20119;-66
2023/04/07 09:41:53;;;;;;;11.52;10.35;;;15.70;71.10;;;;;;4193069;28;20125;-65
2023/04/07 09:44:40;;;;;;;11.90;10.52;;;15.70;71.70;;;;;;4206629;28;20055;-66
2023/04/07 09:47:27;;;;;;;12.52;11.15;;;15.70;70.90;;;;;;4195900;28;20228;-66
2023/04/07 09:50:09;;;;;;;12.20;11.00;;;15.70;72.00;;;;;;4194380;28;20048;-65
2023/04/07 09:52:51;;;;;;;;;;;15.70;70.70;;;;;;4208685;28;20042;-66
2023/04/07 09:55:33;;;;;;;16.20;10.85;;;15.80;70.40;;;;;;4192485;28;19947;-65
2023/04/07 09:58:15;;;;;;;13.27;11.05;;;15.70;71.10;;;;;;4192406;28;20141;-65
2023/04/07 10:00:56;;;;;;;11.10;9.90;;;15.70;70.80;;;;;;4191640;28;20515;-66
2023/04/07 10:03:38;;;;;;;11.13;10.02;;;15.70;70.30;;;;;;4207542;28;20193;-66
2023/04/07 10:06:19;;;;;;;11.30;10.05;;;15.70;70.60;;;;;;4202672;28;20082;-66
2023/04/07 10:09:02;;;;;;;11.35;10.23;;;15.70;70.60;;;;;;4203258;28;20047;-65
2023/04/07 10:11:45;;;;;;;11.95;10.68;;;15.70;70.90;;;;;;4199776;28;20059;-62
2023/04/07 10:14:28;;;;;;;12.90;10.27;;;15.80;70.10;;;;;;4197415;28;20055;-62
2023/04/07 10:17:09;;;;;;;10.32;9.25;;;15.80;70.10;;;;;;4201835;28;20141;-62
2023/04/07 10:19:51;;;;;;;10.45;9.45;;;15.80;70.10;;;;;;4204099;28;20066;-62
2023/04/07 10:22:33;;;;;;;11.20;9.60;;;15.80;70.10;;;;;;4191108;28;20066;-62
2023/04/07 10:25:14;;;;;;;;;;;15.80;69.70;;;;;;4199725;28;20046;-62
2023/04/07 10:28:00;;;;;;;10.60;9.50;;;15.80;69.70;;;;;;4196781;28;19931;-62
2023/04/07 10:30:42;;;;;;;11.05;9.65;;;15.80;70.60;;;;;;4206562;28;20501;-61
2023/04/07 10:33:37;;;;;;;;;;;15.90;70.90;;;;;;4195890;28;20655;-62
2023/04/07 10:36:19;;;;;;;10.40;8.40;;;15.90;71.10;;;;;;4191773;28;19978;-62
2023/04/07 10:39:20;;;;;;;9.82;7.90;;;15.90;71.30;;;;;;4190010;28;20367;-62
2023/04/07 10:42:01;;;;;;;8.15;6.78;;;15.90;70.70;;;;;;4194572;28;20051;-62
2023/04/07 10:44:49;;;;;;;8.02;7.32;;;15.90;71.60;;;;;;4199123;28;20058;-61
2023/04/07 10:47:31;;;;;;;7.53;6.80;;;15.90;71.50;;;;;;4214551;28;20051;-61
2023/04/07 10:50:20;;;;;;;8.00;7.20;;;15.90;71.20;;;;;;4191888;28;20059;-62
2023/04/07 10:53:09;;;;;;;7.40;6.75;;;15.90;70.50;;;;;;4190952;28;20047;-61
2023/04/07 10:55:55;;;;;;;7.93;7.20;;;15.90;70.50;;;;;;4193681;28;20055;-62
2023/04/07 10:58:36;;;;;;;7.82;7.13;;;15.90;71.30;;;;;;4200057;28;20587;-62
2023/04/07 11:01:20;;;;;;;8.07;7.38;;;15.90;70.70;;;;;;4206862;28;20051;-62
2023/04/07 11:04:01;;;;;;;8.52;7.63;;;15.90;70.50;;;;;;4206500;28;20063;-61
2023/04/07 11:06:47;;;;;;;7.80;7.10;;;15.90;70.80;;;;;;4191671;28;20062;-62
2023/04/07 11:09:28;;;;;;;8.43;7.60;;;15.90;70.30;;;;;;4191743;28;20143;-62
2023/04/07 11:12:21;;;;;;;8.30;7.50;;;16.00;71.00;;;;;;4197789;28;20051;-62
2023/04/07 11:15:17;;;;;;;8.77;7.60;;;16.00;69.70;;;;;;4194683;28;20086;-62
2023/04/07 11:18:13;;;;;;;8.88;7.97;;;16.00;69.00;;;;;;4192107;28;20055;-62
2023/04/07 11:20:57;;;;;;;8.40;7.50;;;16.00;68.90;;;;;;4196243;28;20055;-61
2023/04/07 11:23:39;;;;;;;9.80;7.70;;;16.00;69.10;;;;;;4193836;28;20130;-61
2023/04/07 11:26:21;;;;;;;8.18;7.38;;;16.00;68.50;;;;;;4199282;28;20686;-61
2023/04/07 11:29:01;;;;;;;;;;;16.00;68.40;;;;;;4194720;28;20055;-61
2023/04/07 11:31:48;;;;;;;7.82;6.85;;;16.00;68.60;;;;;;4197776;28;19927;-61
2023/04/07 11:34:31;;;;;;;8.98;8.05;;;16.00;68.10;;;;;;4190168;28;20082;-61
2023/04/07 11:37:20;;;;;;;9.88;8.05;;;16.00;67.60;;;;;;4190359;28;20270;-62
2023/04/07 11:40:00;;;;;;;8.68;7.25;;;16.00;67.40;;;;;;4205777;28;20046;-61
2023/04/07 11:42:41;;;;;;;9.88;8.98;;;16.00;67.10;;;;;;4191734;28;20507;-61
2023/04/07 11:45:23;;;;;;;8.70;8.00;;;16.00;66.90;;;;;;4189942;28;20051;-62
2023/04/07 11:48:04;;;;;;;9.23;7.78;;;16.00;66.10;;;;;;4190142;28;20055;-61
2023/04/07 11:50:47;;;;;;;10.00;8.35;;;16.00;66.50;;;;;;4198813;28;20055;-61
2023/04/07 11:53:30;;;;;;;9.38;8.48;;;16.10;66.50;;;;;;4200961;28;20588;-61
2023/04/07 11:56:15;;;;;;;8.88;8.07;;;16.10;66.20;;;;;;4199015;28;20136;-61
2023/04/07 11:58:57;;;;;;;11.43;8.80;;;16.10;66.10;;;;;;4195161;28;20051;-62
2023/04/07 12:01:41;;;;;;;8.20;7.45;;;16.10;66.60;;;;;;4191650;28;20055;-61
2023/04/07 12:04:22;;;;;;;9.60;8.60;;;16.10;66.00;;;;;;4201664;28;20063;-62
2023/04/07 12:07:12;;;;;;;10.63;9.63;;;16.10;65.80;;;;;;4201205;28;20055;-61
2023/04/07 12:09:53;;;;;;;7.88;7.15;;;16.10;65.40;;;;;;4200597;28;20074;-61
2023/04/07 12:12:34;;;;;;;;;;;16.10;65.90;;;;;;4190322;28;20097;-61
2023/04/07 12:15:15;;;;;;;11.07;9.60;;;16.10;66.10;;;;;;4205670;28;20891;-61
2023/04/07 12:17:56;;;;;;;;;;;16.10;65.90;;;;;;4205698;28;20051;-61
2023/04/07 12:20:37;;;;;;;8.70;7.80;;;16.10;65.70;;;;;;4196230;28;19946;-61
2023/04/07 12:23:20;;;;;;;10.05;9.10;;;16.10;65.40;;;;;;4189672;28;20089;-61
2023/04/07 12:26:01;;;;;;;12.23;9.80;;;16.10;65.10;;;;;;4192932;28;20052;-61
2023/04/07 12:28:42;;;;;;;11.10;9.20;;;16.10;64.90;;;;;;4204112;28;20059;-61
2023/04/07 12:31:22;;;;;;;11.57;10.43;;;16.10;64.50;;;;;;4190838;28;20066;-61
2023/04/07 12:34:03;;;;;;;11.35;10.15;;;16.10;64.30;;;;;;4196203;28;20182;-62
2023/04/07 12:36:44;;;;;;;9.43;8.53;;;16.10;64.20;;;;;;4190367;28;20403;-62
2023/04/07 12:39:27;;;;;;;10.57;9.48;;;16.10;64.40;;;;;;4205505;28;20364;-62
2023/04/07 12:42:10;;;;;;;11.07;9.35;;;16.10;64.30;;;;;;4189576;28;20183;-62
2023/04/07 12:44:51;;;;;;;11.00;9.90;;;16.20;64.60;;;;;;4196940;28;20507;-62
2023/04/07 12:47:33;;;;;;;11.32;10.30;;;16.20;64.40;;;;;;4198301;28;20154;-62
2023/04/07 12:50:14;;;;;;;13.65;9.52;;;16.20;64.10;;;;;;4190582;28;20505;-62
2023/04/07 12:52:57;;;;;;;9.88;8.88;;;16.20;63.40;;;;;;4198450;28;20059;-62
2023/04/07 12:55:40;;;;;;;11.02;9.85;;;16.30;63.90;;;;;;4202433;28;20383;-62
2023/04/07 12:58:21;;;;;;;10.80;9.65;;;16.20;63.80;;;;;;4201892;28;20062;-60
2023/04/07 13:01:02;;;;;;;10.13;9.13;;;16.30;63.80;;;;;;4210860;28;20108;-61
2023/04/07 13:03:43;;;;;;;10.90;9.88;;;16.30;64.00;;;;;;4208712;28;20842;-60
2023/04/07 13:06:24;;;;;;;13.48;9.23;;;16.40;64.20;;;;;;4210810;28;20047;-59
2023/04/07 13:09:05;;;;;;;10.55;9.45;;;16.40;64.30;;;;;;4210564;28;20185;-59
2023/04/07 13:11:47;;;;;;;10.20;9.20;;;16.40;64.30;;;;;;4209772;28;20144;-60
2023/04/07 13:14:28;;;;;;;9.40;8.50;;;16.40;64.20;;;;;;4210705;28;20043;-62
2023/04/07 13:17:09;;;;;;;10.05;8.43;;;16.40;63.90;;;;;;4214124;28;20059;-61
2023/04/07 13:19:50;;;;;;;9.90;8.90;;;16.40;64.20;;;;;;4208478;28;20047;-61
2023/04/07 13:22:31;;;;;;;11.27;10.10;;;16.40;65.00;;;;;;4193603;28;20097;-62
2023/04/07 13:25:12;;;;;;;10.65;9.15;;;16.50;64.40;;;;;;4201518;28;20795;-61
2023/04/07 13:27:54;;;;;;;10.38;9.27;;;16.40;63.80;;;;;;4210421;28;20047;-65
2023/04/07 13:30:35;;;;;;;12.10;9.57;;;16.50;63.90;;;;;;4193705;28;20063;-64
2023/04/07 13:33:16;;;;;;;10.98;9.88;;;16.50;63.90;;;;;;4194608;28;20071;-63
2023/04/07 13:35:57;;;;;;;11.35;8.95;;;16.50;63.60;;;;;;4210167;28;20074;-64
2023/04/07 13:38:40;;;;;;;10.98;9.88;;;16.50;62.90;;;;;;4195016;28;20133;-59
2023/04/07 13:41:21;;;;;;;10.52;9.52;;;16.50;64.10;;;;;;4193542;28;20190;-60
2023/04/07 13:44:04;;;;;;;11.50;9.32;;;16.50;63.10;;;;;;4193858;28;20102;-61
2023/04/07 13:46:44;;;;;;;10.40;9.40;;;16.60;63.30;;;;;;4210160;28;20438;-62
2023/04/07 13:49:25;;;;;;;11.23;10.15;;;16.50;63.30;;;;;;4194748;28;20060;-62
2023/04/07 13:52:06;;;;;;;15.85;10.95;;;16.60;63.30;;;;;;4203895;27;20367;-59
2023/04/07 13:54:47;;;;;;;13.50;11.18;;;16.50;63.90;;;;;;4208602;28;20051;-61
2023/04/07 13:57:28;;;;;;;13.80;11.05;;;16.60;61.50;;;;;;4192500;28;20051;-61